sensor_id;sensor_type;location;lat;lon;timestamp;temperature;humidity
5689;DHT22;2869;50.432;8.680;2023-05-16T00:01:45;12.10;99.90
5689;DHT22;2869;50.432;8.680;2023-05-16T00:04:12;12.10;99.90
5689;DHT22;2869;50.432;8.680;2023-05-16T00:06:39;12.10;99.90
5689;DHT22;2869;50.432;8.680;2023-05-16T00:09:07;12.10;99.90
5689;DHT22;2869;50.432;8.680;2023-05-16T00:11:33;12.10;99.90
5689;DHT22;2869;50.432;8.680;2023-05-16T00:14:00;12.10;99.90
5689;DHT22;2869;50.432;8.680;2023-05-16T00:16:26;12.00;99.90
5689;DHT22;2869;50.432;8.680;2023-05-16T00:18:54;12.00;99.90
5689;DHT22;2869;50.432;8.680;2023-05-16T00:21:21;12.00;99.90
5689;DHT22;2869;50.432;8.680;2023-05-16T00:23:48;11.90;99.90
5689;DHT22;2869;50.432;8.680;2023-05-16T00:26:16;11.90;99.90
5689;DHT22;2869;50.432;8.680;2023-05-16T00:28:43;11.90;99.90
5689;DHT22;2869;50.432;8.680;2023-05-16T00:31:10;11.90;99.90
5689;DHT22;2869;50.432;8.680;2023-05-16T00:33:37;11.90;99.90
5689;DHT22;2869;50.432;8.680;2023-05-16T00:36:04;11.90;99.90
5689;DHT22;2869;50.432;8.680;2023-05-16T00:38:30;11.90;99.90
5689;DHT22;2869;50.432;8.680;2023-05-16T00:40:57;11.80;99.90
5689;DHT22;2869;50.432;8.680;2023-05-16T00:43:25;11.80;99.90
5689;DHT22;2869;50.432;8.680;2023-05-16T00:45:52;11.80;99.90
5689;DHT22;2869;50.432;8.680;2023-05-16T00:48:18;11.80;99.90
5689;DHT22;2869;50.432;8.680;2023-05-16T00:50:45;11.80;99.90
5689;DHT22;2869;50.432;8.680;2023-05-16T00:53:12;11.70;99.90
5689;DHT22;2869;50.432;8.680;2023-05-16T00:55:38;11.70;99.90
5689;DHT22;2869;50.432;8.680;2023-05-16T00:58:05;11.70;99.90
5689;DHT22;2869;50.432;8.680;2023-05-16T01:00:33;11.70;99.90
5689;DHT22;2869;50.432;8.680;2023-05-16T01:03:00;11.70;99.90
5689;DHT22;2869;50.432;8.680;2023-05-16T01:05:28;11.70;99.90
5689;DHT22;2869;50.432;8.680;2023-05-16T01:07:55;11.70;99.90
5689;DHT22;2869;50.432;8.680;2023-05-16T01:10:22;11.70;99.90
5689;DHT22;2869;50.432;8.680;2023-05-16T01:12:56;11.70;99.90
5689;DHT22;2869;50.432;8.680;2023-05-16T01:15:38;11.70;99.90
5689;DHT22;2869;50.432;8.680;2023-05-16T01:18:14;11.70;99.90
5689;DHT22;2869;50.432;8.680;2023-05-16T01:20:46;11.70;99.90
5689;DHT22;2869;50.432;8.680;2023-05-16T01:23:29;11.70;99.90
5689;DHT22;2869;50.432;8.680;2023-05-16T01:26:14;11.70;99.90
5689;DHT22;2869;50.432;8.680;2023-05-16T01:28:41;11.80;99.90
5689;DHT22;2869;50.432;8.680;2023-05-16T01:31:09;11.80;99.90
5689;DHT22;2869;50.432;8.680;2023-05-16T01:33:35;11.80;99.90
5689;DHT22;2869;50.432;8.680;2023-05-16T01:36:06;11.80;99.90
5689;DHT22;2869;50.432;8.680;2023-05-16T01:38:40;11.80;99.90
5689;DHT22;2869;50.432;8.680;2023-05-16T01:41:14;11.90;99.90
5689;DHT22;2869;50.432;8.680;2023-05-16T01:43:45;11.90;99.90
5689;DHT22;2869;50.432;8.680;2023-05-16T01:46:14;11.90;99.90
5689;DHT22;2869;50.432;8.680;2023-05-16T01:48:46;11.90;99.90
5689;DHT22;2869;50.432;8.680;2023-05-16T01:51:15;11.90;99.90
5689;DHT22;2869;50.432;8.680;2023-05-16T01:53:42;11.90;99.90
5689;DHT22;2869;50.432;8.680;2023-05-16T01:56:14;11.90;99.90
5689;DHT22;2869;50.432;8.680;2023-05-16T01:58:42;11.90;99.90
5689;DHT22;2869;50.432;8.680;2023-05-16T02:01:12;12.00;99.90
5689;DHT22;2869;50.432;8.680;2023-05-16T02:03:39;12.00;99.90
5689;DHT22;2869;50.432;8.680;2023-05-16T02:06:06;12.00;99.90
5689;DHT22;2869;50.432;8.680;2023-05-16T02:08:32;12.00;99.90
5689;DHT22;2869;50.432;8.680;2023-05-16T02:10:59;12.00;99.90
5689;DHT22;2869;50.432;8.680;2023-05-16T02:13:27;12.00;99.90
5689;DHT22;2869;50.432;8.680;2023-05-16T02:15:54;12.00;99.90
5689;DHT22;2869;50.432;8.680;2023-05-16T02:18:20;12.00;99.90
5689;DHT22;2869;50.432;8.680;2023-05-16T02:20:48;12.00;99.90
5689;DHT22;2869;50.432;8.680;2023-05-16T02:23:14;12.00;99.90
5689;DHT22;2869;50.432;8.680;2023-05-16T02:25:41;12.00;99.90
5689;DHT22;2869;50.432;8.680;2023-05-16T02:28:07;12.00;99.90
5689;DHT22;2869;50.432;8.680;2023-05-16T02:30:35;12.00;99.90
5689;DHT22;2869;50.432;8.680;2023-05-16T02:33:02;12.00;99.90
5689;DHT22;2869;50.432;8.680;2023-05-16T02:35:29;12.00;99.90
5689;DHT22;2869;50.432;8.680;2023-05-16T02:37:56;12.00;99.90
5689;DHT22;2869;50.432;8.680;2023-05-16T02:40:22;12.00;99.90
5689;DHT22;2869;50.432;8.680;2023-05-16T02:42:49;12.00;99.90
5689;DHT22;2869;50.432;8.680;2023-05-16T02:45:16;12.00;99.90
5689;DHT22;2869;50.432;8.680;2023-05-16T02:47:43;12.00;99.90
5689;DHT22;2869;50.432;8.680;2023-05-16T02:50:10;12.00;99.90
5689;DHT22;2869;50.432;8.680;2023-05-16T02:52:37;12.00;99.90
5689;DHT22;2869;50.432;8.680;2023-05-16T02:55:04;12.00;99.90
5689;DHT22;2869;50.432;8.680;2023-05-16T02:57:32;12.00;99.90
5689;DHT22;2869;50.432;8.680;2023-05-16T02:59:58;12.00;99.90
5689;DHT22;2869;50.432;8.680;2023-05-16T03:02:25;11.90;99.90
5689;DHT22;2869;50.432;8.680;2023-05-16T03:04:53;11.90;99.90
5689;DHT22;2869;50.432;8.680;2023-05-16T03:07:19;11.90;99.90
5689;DHT22;2869;50.432;8.680;2023-05-16T03:09:46;11.90;99.90
5689;DHT22;2869;50.432;8.680;2023-05-16T03:12:13;11.90;99.90
5689;DHT22;2869;50.432;8.680;2023-05-16T03:14:39;11.90;99.90
5689;DHT22;2869;50.432;8.680;2023-05-16T03:17:06;11.90;99.90
5689;DHT22;2869;50.432;8.680;2023-05-16T03:19:33;11.90;99.90
5689;DHT22;2869;50.432;8.680;2023-05-16T03:22:01;11.80;99.90
5689;DHT22;2869;50.432;8.680;2023-05-16T03:24:28;11.80;99.90
5689;DHT22;2869;50.432;8.680;2023-05-16T03:26:55;11.90;99.90
5689;DHT22;2869;50.432;8.680;2023-05-16T03:29:21;11.80;99.90
5689;DHT22;2869;50.432;8.680;2023-05-16T03:31:48;11.80;99.90
5689;DHT22;2869;50.432;8.680;2023-05-16T03:34:14;11.70;99.90
5689;DHT22;2869;50.432;8.680;2023-05-16T03:36:41;11.80;99.90
5689;DHT22;2869;50.432;8.680;2023-05-16T03:39:09;11.80;99.90
5689;DHT22;2869;50.432;8.680;2023-05-16T03:41:36;11.80;99.90
5689;DHT22;2869;50.432;8.680;2023-05-16T03:44:03;11.70;99.90
5689;DHT22;2869;50.432;8.680;2023-05-16T03:46:29;11.70;99.90
5689;DHT22;2869;50.432;8.680;2023-05-16T03:48:56;11.70;99.90
5689;DHT22;2869;50.432;8.680;2023-05-16T03:51:23;11.70;99.90
5689;DHT22;2869;50.432;8.680;2023-05-16T03:53:49;11.70;99.90
5689;DHT22;2869;50.432;8.680;2023-05-16T03:56:17;11.70;99.90
5689;DHT22;2869;50.432;8.680;2023-05-16T03:58:44;11.70;99.90
5689;DHT22;2869;50.432;8.680;2023-05-16T04:01:10;11.60;99.90
5689;DHT22;2869;50.432;8.680;2023-05-16T04:03:37;11.60;99.90
5689;DHT22;2869;50.432;8.680;2023-05-16T04:06:05;11.60;99.90
5689;DHT22;2869;50.432;8.680;2023-05-16T04:08:32;11.60;99.90
5689;DHT22;2869;50.432;8.680;2023-05-16T04:10:58;11.50;99.90
5689;DHT22;2869;50.432;8.680;2023-05-16T04:13:26;11.50;99.90
5689;DHT22;2869;50.432;8.680;2023-05-16T04:15:53;11.50;99.90
5689;DHT22;2869;50.432;8.680;2023-05-16T04:18:19;11.50;99.90
5689;DHT22;2869;50.432;8.680;2023-05-16T04:20:46;11.50;99.90
5689;DHT22;2869;50.432;8.680;2023-05-16T04:23:13;11.50;99.90
5689;DHT22;2869;50.432;8.680;2023-05-16T04:25:39;11.50;99.90
5689;DHT22;2869;50.432;8.680;2023-05-16T04:28:07;11.50;99.90
5689;DHT22;2869;50.432;8.680;2023-05-16T04:30:35;11.40;99.90
5689;DHT22;2869;50.432;8.680;2023-05-16T04:33:02;11.40;99.90
5689;DHT22;2869;50.432;8.680;2023-05-16T04:35:29;11.40;99.90
5689;DHT22;2869;50.432;8.680;2023-05-16T04:37:56;11.40;99.90
5689;DHT22;2869;50.432;8.680;2023-05-16T04:40:22;11.40;99.90
5689;DHT22;2869;50.432;8.680;2023-05-16T04:42:49;11.40;99.90
5689;DHT22;2869;50.432;8.680;2023-05-16T04:45:16;11.30;99.90
5689;DHT22;2869;50.432;8.680;2023-05-16T04:47:44;11.30;99.90
5689;DHT22;2869;50.432;8.680;2023-05-16T04:50:11;11.30;99.90
5689;DHT22;2869;50.432;8.680;2023-05-16T04:52:38;11.30;99.90
5689;DHT22;2869;50.432;8.680;2023-05-16T04:55:05;11.30;99.90
5689;DHT22;2869;50.432;8.680;2023-05-16T04:57:32;11.30;99.90
5689;DHT22;2869;50.432;8.680;2023-05-16T04:59:58;11.30;99.90
5689;DHT22;2869;50.432;8.680;2023-05-16T05:02:25;11.30;99.90
5689;DHT22;2869;50.432;8.680;2023-05-16T05:04:53;11.20;99.90
5689;DHT22;2869;50.432;8.680;2023-05-16T05:07:20;11.20;99.90
5689;DHT22;2869;50.432;8.680;2023-05-16T05:09:46;11.10;99.90
5689;DHT22;2869;50.432;8.680;2023-05-16T05:12:13;10.90;99.90
5689;DHT22;2869;50.432;8.680;2023-05-16T05:14:40;10.80;99.90
5689;DHT22;2869;50.432;8.680;2023-05-16T05:17:06;10.70;99.90
5689;DHT22;2869;50.432;8.680;2023-05-16T05:19:33;10.60;99.90
5689;DHT22;2869;50.432;8.680;2023-05-16T05:22:01;10.50;99.90
5689;DHT22;2869;50.432;8.680;2023-05-16T05:24:27;10.40;99.90
5689;DHT22;2869;50.432;8.680;2023-05-16T05:26:54;10.30;99.90
5689;DHT22;2869;50.432;8.680;2023-05-16T05:29:21;10.30;99.90
5689;DHT22;2869;50.432;8.680;2023-05-16T05:31:48;10.30;99.90
5689;DHT22;2869;50.432;8.680;2023-05-16T05:34:14;10.30;99.90
5689;DHT22;2869;50.432;8.680;2023-05-16T05:36:41;10.30;99.90
5689;DHT22;2869;50.432;8.680;2023-05-16T05:39:09;10.30;99.90
5689;DHT22;2869;50.432;8.680;2023-05-16T05:41:36;10.30;99.90
5689;DHT22;2869;50.432;8.680;2023-05-16T05:44:03;10.30;99.90
5689;DHT22;2869;50.432;8.680;2023-05-16T05:46:30;10.30;99.90
5689;DHT22;2869;50.432;8.680;2023-05-16T05:48:58;10.30;99.90
5689;DHT22;2869;50.432;8.680;2023-05-16T05:51:24;10.40;99.90
5689;DHT22;2869;50.432;8.680;2023-05-16T05:53:51;10.40;99.90
5689;DHT22;2869;50.432;8.680;2023-05-16T05:56:19;10.40;99.90
5689;DHT22;2869;50.432;8.680;2023-05-16T05:58:46;10.50;99.90
5689;DHT22;2869;50.432;8.680;2023-05-16T06:01:13;10.50;99.90
5689;DHT22;2869;50.432;8.680;2023-05-16T06:03:40;10.60;99.90
5689;DHT22;2869;50.432;8.680;2023-05-16T06:06:07;10.60;99.90
5689;DHT22;2869;50.432;8.680;2023-05-16T06:08:34;10.60;99.90
5689;DHT22;2869;50.432;8.680;2023-05-16T06:11:01;10.70;99.90
5689;DHT22;2869;50.432;8.680;2023-05-16T06:13:29;10.70;99.90
5689;DHT22;2869;50.432;8.680;2023-05-16T06:15:56;10.80;99.90
5689;DHT22;2869;50.432;8.680;2023-05-16T06:18:22;10.80;99.90
5689;DHT22;2869;50.432;8.680;2023-05-16T06:20:49;10.90;99.90
5689;DHT22;2869;50.432;8.680;2023-05-16T06:23:16;10.90;99.90
5689;DHT22;2869;50.432;8.680;2023-05-16T06:25:43;11.00;99.90
5689;DHT22;2869;50.432;8.680;2023-05-16T06:28:09;11.00;99.90
5689;DHT22;2869;50.432;8.680;2023-05-16T06:30:37;11.10;99.90
5689;DHT22;2869;50.432;8.680;2023-05-16T06:33:04;11.10;99.90
5689;DHT22;2869;50.432;8.680;2023-05-16T06:35:30;11.10;99.90
5689;DHT22;2869;50.432;8.680;2023-05-16T06:37:57;11.10;99.90
5689;DHT22;2869;50.432;8.680;2023-05-16T06:40:24;11.10;99.90
5689;DHT22;2869;50.432;8.680;2023-05-16T06:42:50;11.20;99.90
5689;DHT22;2869;50.432;8.680;2023-05-16T06:45:17;11.20;99.90
5689;DHT22;2869;50.432;8.680;2023-05-16T06:47:45;11.10;99.90
5689;DHT22;2869;50.432;8.680;2023-05-16T06:50:12;11.10;99.90
5689;DHT22;2869;50.432;8.680;2023-05-16T06:52:38;11.00;99.90
5689;DHT22;2869;50.432;8.680;2023-05-16T06:55:06;11.00;99.90
5689;DHT22;2869;50.432;8.680;2023-05-16T06:57:33;11.00;99.90
5689;DHT22;2869;50.432;8.680;2023-05-16T07:00:00;10.90;99.90
5689;DHT22;2869;50.432;8.680;2023-05-16T07:02:26;10.80;99.90
5689;DHT22;2869;50.432;8.680;2023-05-16T07:04:55;10.70;99.90
5689;DHT22;2869;50.432;8.680;2023-05-16T07:07:21;10.60;99.90
5689;DHT22;2869;50.432;8.680;2023-05-16T07:09:48;10.40;99.90
5689;DHT22;2869;50.432;8.680;2023-05-16T07:12:14;10.30;99.90
5689;DHT22;2869;50.432;8.680;2023-05-16T07:14:41;10.20;99.90
5689;DHT22;2869;50.432;8.680;2023-05-16T07:17:08;10.10;99.90
5689;DHT22;2869;50.432;8.680;2023-05-16T07:19:35;10.20;99.90
5689;DHT22;2869;50.432;8.680;2023-05-16T07:22:04;10.20;99.90
5689;DHT22;2869;50.432;8.680;2023-05-16T07:24:30;10.20;99.90
5689;DHT22;2869;50.432;8.680;2023-05-16T07:26:57;10.30;99.90
5689;DHT22;2869;50.432;8.680;2023-05-16T07:29:23;10.20;99.90
5689;DHT22;2869;50.432;8.680;2023-05-16T07:31:50;10.30;99.90
5689;DHT22;2869;50.432;8.680;2023-05-16T07:34:17;10.30;99.90
5689;DHT22;2869;50.432;8.680;2023-05-16T07:36:43;10.20;99.90
5689;DHT22;2869;50.432;8.680;2023-05-16T07:39:11;10.20;99.90
5689;DHT22;2869;50.432;8.680;2023-05-16T07:41:39;10.20;99.90
5689;DHT22;2869;50.432;8.680;2023-05-16T07:44:05;10.20;99.90
5689;DHT22;2869;50.432;8.680;2023-05-16T07:46:32;10.20;99.90
5689;DHT22;2869;50.432;8.680;2023-05-16T07:48:58;10.20;99.90
5689;DHT22;2869;50.432;8.680;2023-05-16T07:51:25;10.20;99.90
5689;DHT22;2869;50.432;8.680;2023-05-16T07:53:53;10.10;99.90
5689;DHT22;2869;50.432;8.680;2023-05-16T07:56:21;10.10;99.90
5689;DHT22;2869;50.432;8.680;2023-05-16T07:58:48;10.10;99.90
5689;DHT22;2869;50.432;8.680;2023-05-16T08:01:14;10.20;99.90
5689;DHT22;2869;50.432;8.680;2023-05-16T08:03:41;10.30;99.90
5689;DHT22;2869;50.432;8.680;2023-05-16T08:06:08;10.40;99.90
5689;DHT22;2869;50.432;8.680;2023-05-16T08:08:34;10.30;99.90
5689;DHT22;2869;50.432;8.680;2023-05-16T08:11:01;10.30;99.90
5689;DHT22;2869;50.432;8.680;2023-05-16T08:13:30;10.30;99.90
5689;DHT22;2869;50.432;8.680;2023-05-16T08:15:57;10.40;99.90
5689;DHT22;2869;50.432;8.680;2023-05-16T08:18:23;10.40;99.90
5689;DHT22;2869;50.432;8.680;2023-05-16T08:20:50;10.50;99.90
5689;DHT22;2869;50.432;8.680;2023-05-16T08:23:17;10.60;99.90
5689;DHT22;2869;50.432;8.680;2023-05-16T08:25:44;10.60;99.90
5689;DHT22;2869;50.432;8.680;2023-05-16T08:28:11;10.70;99.90
5689;DHT22;2869;50.432;8.680;2023-05-16T08:30:38;10.80;99.90
5689;DHT22;2869;50.432;8.680;2023-05-16T08:33:05;10.90;99.90
5689;DHT22;2869;50.432;8.680;2023-05-16T08:35:32;10.90;99.90
5689;DHT22;2869;50.432;8.680;2023-05-16T08:37:59;10.90;99.90
5689;DHT22;2869;50.432;8.680;2023-05-16T08:40:27;10.90;99.90
5689;DHT22;2869;50.432;8.680;2023-05-16T08:42:54;10.80;99.90
5689;DHT22;2869;50.432;8.680;2023-05-16T08:45:21;10.80;99.90
5689;DHT22;2869;50.432;8.680;2023-05-16T08:47:53;10.80;99.90
5689;DHT22;2869;50.432;8.680;2023-05-16T08:50:20;10.90;99.90
5689;DHT22;2869;50.432;8.680;2023-05-16T08:52:50;11.00;99.90
5689;DHT22;2869;50.432;8.680;2023-05-16T08:55:18;11.10;99.90
5689;DHT22;2869;50.432;8.680;2023-05-16T08:57:47;11.10;99.90
5689;DHT22;2869;50.432;8.680;2023-05-16T09:00:15;11.20;99.90
5689;DHT22;2869;50.432;8.680;2023-05-16T09:02:42;11.20;99.90
5689;DHT22;2869;50.432;8.680;2023-05-16T09:05:13;11.20;99.90
5689;DHT22;2869;50.432;8.680;2023-05-16T09:07:40;11.30;99.90
5689;DHT22;2869;50.432;8.680;2023-05-16T09:10:08;11.60;99.90
5689;DHT22;2869;50.432;8.680;2023-05-16T09:12:35;11.80;99.90
5689;DHT22;2869;50.432;8.680;2023-05-16T09:15:03;12.10;99.90
5689;DHT22;2869;50.432;8.680;2023-05-16T09:17:34;12.30;99.90
5689;DHT22;2869;50.432;8.680;2023-05-16T09:20:08;12.50;99.90
5689;DHT22;2869;50.432;8.680;2023-05-16T09:22:36;12.70;99.90
5689;DHT22;2869;50.432;8.680;2023-05-16T09:25:04;12.90;99.90
5689;DHT22;2869;50.432;8.680;2023-05-16T09:27:31;13.00;99.90
5689;DHT22;2869;50.432;8.680;2023-05-16T09:29:58;13.10;99.90
5689;DHT22;2869;50.432;8.680;2023-05-16T09:32:25;13.30;99.90
5689;DHT22;2869;50.432;8.680;2023-05-16T09:34:52;13.40;99.90
5689;DHT22;2869;50.432;8.680;2023-05-16T09:37:22;13.30;99.90
5689;DHT22;2869;50.432;8.680;2023-05-16T09:39:51;13.50;99.90
5689;DHT22;2869;50.432;8.680;2023-05-16T09:42:19;13.50;99.90
5689;DHT22;2869;50.432;8.680;2023-05-16T09:44:48;13.40;99.90
5689;DHT22;2869;50.432;8.680;2023-05-16T09:47:15;13.20;99.90
5689;DHT22;2869;50.432;8.680;2023-05-16T09:49:43;13.00;99.90
5689;DHT22;2869;50.432;8.680;2023-05-16T09:52:09;12.70;99.90
5689;DHT22;2869;50.432;8.680;2023-05-16T09:54:36;12.60;99.90
5689;DHT22;2869;50.432;8.680;2023-05-16T09:57:04;12.60;99.90
5689;DHT22;2869;50.432;8.680;2023-05-16T09:59:34;12.90;99.90
5689;DHT22;2869;50.432;8.680;2023-05-16T10:02:02;13.20;99.90
5689;DHT22;2869;50.432;8.680;2023-05-16T10:04:30;13.40;99.90
5689;DHT22;2869;50.432;8.680;2023-05-16T10:07:01;13.60;99.90
5689;DHT22;2869;50.432;8.680;2023-05-16T10:09:30;13.60;99.90
5689;DHT22;2869;50.432;8.680;2023-05-16T10:11:57;13.50;99.90
5689;DHT22;2869;50.432;8.680;2023-05-16T10:14:29;13.50;99.90
5689;DHT22;2869;50.432;8.680;2023-05-16T10:16:56;13.50;99.90
5689;DHT22;2869;50.432;8.680;2023-05-16T10:19:24;13.50;99.90
5689;DHT22;2869;50.432;8.680;2023-05-16T10:21:53;13.40;99.90
5689;DHT22;2869;50.432;8.680;2023-05-16T10:24:28;13.50;99.90
5689;DHT22;2869;50.432;8.680;2023-05-16T10:26:55;13.60;99.90
5689;DHT22;2869;50.432;8.680;2023-05-16T10:29:22;13.70;99.90
5689;DHT22;2869;50.432;8.680;2023-05-16T10:31:51;13.80;99.90
5689;DHT22;2869;50.432;8.680;2023-05-16T10:34:18;13.90;99.90
5689;DHT22;2869;50.432;8.680;2023-05-16T10:36:45;13.80;99.90
5689;DHT22;2869;50.432;8.680;2023-05-16T10:39:13;13.80;99.90
5689;DHT22;2869;50.432;8.680;2023-05-16T10:41:40;14.00;99.90
5689;DHT22;2869;50.432;8.680;2023-05-16T10:44:12;14.20;99.90
5689;DHT22;2869;50.432;8.680;2023-05-16T10:46:40;14.90;99.90
5689;DHT22;2869;50.432;8.680;2023-05-16T10:49:20;15.40;99.90
5689;DHT22;2869;50.432;8.680;2023-05-16T10:52:01;15.90;99.90
5689;DHT22;2869;50.432;8.680;2023-05-16T10:54:33;16.10;99.90
5689;DHT22;2869;50.432;8.680;2023-05-16T10:57:03;16.10;99.90
5689;DHT22;2869;50.432;8.680;2023-05-16T10:59:39;16.30;99.90
5689;DHT22;2869;50.432;8.680;2023-05-16T11:02:20;16.50;99.90
5689;DHT22;2869;50.432;8.680;2023-05-16T11:04:50;16.40;99.90
5689;DHT22;2869;50.432;8.680;2023-05-16T11:07:18;16.50;99.90
5689;DHT22;2869;50.432;8.680;2023-05-16T11:09:45;16.40;99.90
5689;DHT22;2869;50.432;8.680;2023-05-16T11:12:19;16.40;99.90
5689;DHT22;2869;50.432;8.680;2023-05-16T11:14:50;16.40;99.90
5689;DHT22;2869;50.432;8.680;2023-05-16T11:17:20;16.50;99.90
5689;DHT22;2869;50.432;8.680;2023-05-16T11:19:49;16.90;99.90
5689;DHT22;2869;50.432;8.680;2023-05-16T11:22:24;17.20;99.90
5689;DHT22;2869;50.432;8.680;2023-05-16T11:24:54;17.20;99.90
5689;DHT22;2869;50.432;8.680;2023-05-16T11:27:23;17.30;99.90
5689;DHT22;2869;50.432;8.680;2023-05-16T11:29:51;17.50;99.90
5689;DHT22;2869;50.432;8.680;2023-05-16T11:32:19;17.50;99.90
5689;DHT22;2869;50.432;8.680;2023-05-16T11:34:48;17.50;99.90
5689;DHT22;2869;50.432;8.680;2023-05-16T11:37:16;17.90;99.90
5689;DHT22;2869;50.432;8.680;2023-05-16T11:39:44;18.10;99.90
5689;DHT22;2869;50.432;8.680;2023-05-16T11:42:10;18.30;99.90
5689;DHT22;2869;50.432;8.680;2023-05-16T11:44:37;18.50;99.90
5689;DHT22;2869;50.432;8.680;2023-05-16T11:47:04;18.60;99.90
5689;DHT22;2869;50.432;8.680;2023-05-16T11:49:31;18.70;99.90
5689;DHT22;2869;50.432;8.680;2023-05-16T11:52:00;19.00;99.90
5689;DHT22;2869;50.432;8.680;2023-05-16T11:54:27;19.30;99.90
5689;DHT22;2869;50.432;8.680;2023-05-16T11:56:54;19.50;99.90
5689;DHT22;2869;50.432;8.680;2023-05-16T11:59:20;19.20;99.90
5689;DHT22;2869;50.432;8.680;2023-05-16T12:01:47;19.00;99.90
5689;DHT22;2869;50.432;8.680;2023-05-16T12:04:15;18.90;99.90
5689;DHT22;2869;50.432;8.680;2023-05-16T12:06:49;18.70;99.90
5689;DHT22;2869;50.432;8.680;2023-05-16T12:09:24;18.50;99.90
5689;DHT22;2869;50.432;8.680;2023-05-16T12:11:51;18.30;99.90
5689;DHT22;2869;50.432;8.680;2023-05-16T12:14:18;17.90;99.90
5689;DHT22;2869;50.432;8.680;2023-05-16T12:16:45;17.80;99.90
5689;DHT22;2869;50.432;8.680;2023-05-16T12:19:13;18.10;99.90
5689;DHT22;2869;50.432;8.680;2023-05-16T12:21:40;18.50;99.90
5689;DHT22;2869;50.432;8.680;2023-05-16T12:24:09;18.50;99.90
5689;DHT22;2869;50.432;8.680;2023-05-16T12:26:38;18.80;99.90
5689;DHT22;2869;50.432;8.680;2023-05-16T12:29:08;18.90;99.90
5689;DHT22;2869;50.432;8.680;2023-05-16T12:31:36;18.50;99.90
5689;DHT22;2869;50.432;8.680;2023-05-16T12:34:03;18.60;99.90
5689;DHT22;2869;50.432;8.680;2023-05-16T12:36:32;19.20;99.90
5689;DHT22;2869;50.432;8.680;2023-05-16T12:38:59;19.70;99.90
5689;DHT22;2869;50.432;8.680;2023-05-16T12:41:29;20.00;99.90
5689;DHT22;2869;50.432;8.680;2023-05-16T12:44:09;20.20;99.90
5689;DHT22;2869;50.432;8.680;2023-05-16T12:46:40;20.00;99.90
5689;DHT22;2869;50.432;8.680;2023-05-16T12:49:07;19.60;99.90
5689;DHT22;2869;50.432;8.680;2023-05-16T12:51:33;19.60;99.90
5689;DHT22;2869;50.432;8.680;2023-05-16T12:54:07;19.70;99.90
5689;DHT22;2869;50.432;8.680;2023-05-16T12:56:34;19.80;99.90
5689;DHT22;2869;50.432;8.680;2023-05-16T12:59:01;19.40;99.90
5689;DHT22;2869;50.432;8.680;2023-05-16T13:01:29;19.30;99.90
5689;DHT22;2869;50.432;8.680;2023-05-16T13:03:55;19.40;99.90
5689;DHT22;2869;50.432;8.680;2023-05-16T13:06:22;19.20;99.90
5689;DHT22;2869;50.432;8.680;2023-05-16T13:08:48;19.10;99.90
5689;DHT22;2869;50.432;8.680;2023-05-16T13:11:16;19.30;99.90
5689;DHT22;2869;50.432;8.680;2023-05-16T13:13:43;19.90;99.90
5689;DHT22;2869;50.432;8.680;2023-05-16T13:16:10;20.20;99.90
5689;DHT22;2869;50.432;8.680;2023-05-16T13:18:38;20.50;99.90
5689;DHT22;2869;50.432;8.680;2023-05-16T13:21:05;20.60;99.90
5689;DHT22;2869;50.432;8.680;2023-05-16T13:23:31;20.60;99.90
5689;DHT22;2869;50.432;8.680;2023-05-16T13:25:58;20.10;99.90
5689;DHT22;2869;50.432;8.680;2023-05-16T13:28:25;19.50;99.90
5689;DHT22;2869;50.432;8.680;2023-05-16T13:30:51;18.80;99.90
5689;DHT22;2869;50.432;8.680;2023-05-16T13:33:18;18.20;99.90
5689;DHT22;2869;50.432;8.680;2023-05-16T13:35:46;17.90;99.90
5689;DHT22;2869;50.432;8.680;2023-05-16T13:38:13;17.60;99.90
5689;DHT22;2869;50.432;8.680;2023-05-16T13:40:39;17.40;99.90
5689;DHT22;2869;50.432;8.680;2023-05-16T13:43:07;17.50;99.90
5689;DHT22;2869;50.432;8.680;2023-05-16T13:45:33;18.10;99.90
5689;DHT22;2869;50.432;8.680;2023-05-16T13:48:01;18.70;99.90
5689;DHT22;2869;50.432;8.680;2023-05-16T13:50:28;19.40;99.90
5689;DHT22;2869;50.432;8.680;2023-05-16T13:52:56;19.60;99.90
5689;DHT22;2869;50.432;8.680;2023-05-16T13:55:23;19.50;99.90
5689;DHT22;2869;50.432;8.680;2023-05-16T13:57:49;19.10;99.90
5689;DHT22;2869;50.432;8.680;2023-05-16T14:00:17;18.80;99.90
5689;DHT22;2869;50.432;8.680;2023-05-16T14:02:44;18.30;99.90
5689;DHT22;2869;50.432;8.680;2023-05-16T14:05:10;18.40;99.90
5689;DHT22;2869;50.432;8.680;2023-05-16T14:07:37;18.60;99.90
5689;DHT22;2869;50.432;8.680;2023-05-16T14:10:06;18.60;99.90
5689;DHT22;2869;50.432;8.680;2023-05-16T14:12:33;18.50;99.90
5689;DHT22;2869;50.432;8.680;2023-05-16T14:15:00;18.00;99.90
5689;DHT22;2869;50.432;8.680;2023-05-16T14:17:27;17.30;99.90
5689;DHT22;2869;50.432;8.680;2023-05-16T14:19:53;17.00;99.90
5689;DHT22;2869;50.432;8.680;2023-05-16T14:22:20;16.80;99.90
5689;DHT22;2869;50.432;8.680;2023-05-16T14:24:47;16.50;99.90
5689;DHT22;2869;50.432;8.680;2023-05-16T14:27:15;16.50;99.90
5689;DHT22;2869;50.432;8.680;2023-05-16T14:29:41;16.80;99.90
5689;DHT22;2869;50.432;8.680;2023-05-16T14:32:09;17.40;99.90
5689;DHT22;2869;50.432;8.680;2023-05-16T14:34:37;17.90;99.90
5689;DHT22;2869;50.432;8.680;2023-05-16T14:37:04;18.40;99.90
5689;DHT22;2869;50.432;8.680;2023-05-16T14:39:30;18.80;99.90
5689;DHT22;2869;50.432;8.680;2023-05-16T14:41:57;19.00;99.90
5689;DHT22;2869;50.432;8.680;2023-05-16T14:44:25;19.30;99.90
5689;DHT22;2869;50.432;8.680;2023-05-16T14:46:51;19.40;99.90
5689;DHT22;2869;50.432;8.680;2023-05-16T14:49:18;19.30;99.90
5689;DHT22;2869;50.432;8.680;2023-05-16T14:51:45;19.00;99.90
5689;DHT22;2869;50.432;8.680;2023-05-16T14:54:13;18.90;99.90
5689;DHT22;2869;50.432;8.680;2023-05-16T14:56:40;18.80;99.90
5689;DHT22;2869;50.432;8.680;2023-05-16T14:59:07;18.80;99.90
5689;DHT22;2869;50.432;8.680;2023-05-16T15:01:35;18.80;99.90
5689;DHT22;2869;50.432;8.680;2023-05-16T15:04:02;18.90;99.90
5689;DHT22;2869;50.432;8.680;2023-05-16T15:06:28;19.00;99.90
5689;DHT22;2869;50.432;8.680;2023-05-16T15:08:55;19.30;99.90
5689;DHT22;2869;50.432;8.680;2023-05-16T15:11:22;19.40;99.90
5689;DHT22;2869;50.432;8.680;2023-05-16T15:13:48;19.40;99.90
5689;DHT22;2869;50.432;8.680;2023-05-16T15:16:15;19.40;99.90
5689;DHT22;2869;50.432;8.680;2023-05-16T15:18:43;19.50;99.90
5689;DHT22;2869;50.432;8.680;2023-05-16T15:21:10;19.30;99.90
5689;DHT22;2869;50.432;8.680;2023-05-16T15:23:36;19.10;99.90
5689;DHT22;2869;50.432;8.680;2023-05-16T15:26:03;18.50;99.90
5689;DHT22;2869;50.432;8.680;2023-05-16T15:28:30;18.20;99.90
5689;DHT22;2869;50.432;8.680;2023-05-16T15:30:57;17.90;99.90
5689;DHT22;2869;50.432;8.680;2023-05-16T15:33:24;17.70;99.90
5689;DHT22;2869;50.432;8.680;2023-05-16T15:35:52;17.40;99.90
5689;DHT22;2869;50.432;8.680;2023-05-16T15:38:18;17.30;99.90
5689;DHT22;2869;50.432;8.680;2023-05-16T15:40:45;17.00;99.90
5689;DHT22;2869;50.432;8.680;2023-05-16T15:43:11;16.90;99.90
5689;DHT22;2869;50.432;8.680;2023-05-16T15:45:38;16.90;99.90
5689;DHT22;2869;50.432;8.680;2023-05-16T15:48:05;16.70;99.90
5689;DHT22;2869;50.432;8.680;2023-05-16T15:50:32;16.50;99.90
5689;DHT22;2869;50.432;8.680;2023-05-16T15:53:00;16.40;99.90
5689;DHT22;2869;50.432;8.680;2023-05-16T15:55:26;16.30;99.90
5689;DHT22;2869;50.432;8.680;2023-05-16T15:57:54;16.10;99.90
5689;DHT22;2869;50.432;8.680;2023-05-16T16:00:22;16.10;99.90
5689;DHT22;2869;50.432;8.680;2023-05-16T16:02:49;15.90;99.90
5689;DHT22;2869;50.432;8.680;2023-05-16T16:05:16;15.90;99.90